Flight Briefing for CPX953

Departure Arrival
Miami International Airport (KMIA)
Click to view FAA NOTAMS
Patrick Air Force Base (KCOF)
Click to view FAA NOTAMS
Departure Time Arrival Time
N/A N/A
Aircraft Distance
B757-200SF 147nm
Departure METAR Arrival METAR
KMIA 271153Z 06007KT 10SM FEW025 27/20 A3007 RMK AO2 SLP182 T02720200 10272 20261 53011 KCOF 271156Z AUTO 24004KT 10SM CLR 25/25 A3009 RMK AO2 SLP194 T02530253 10253 20234 52015 $
Suggested Route
HEDLY2 HEDLY LBV COSTR3


View recent IFR Routes data
Notes
EMPTY | NON-REVENUE REPOSITIONING LEG | VFR DEPARTURE RCMD IF WX PERMITS

Charts and Procedures

Charts for KMIA
No chart available
Charts for KCOF
No chart available

Windy.com Weather Map